sensor_id;sensor_type;location;lat;lon;timestamp;temperature;humidity
45685;DHT22;46836;48.388;16.210;2023-05-10T00:01:34;12.00;99.90
45685;DHT22;46836;48.388;16.210;2023-05-10T00:04:01;11.90;99.90
45685;DHT22;46836;48.388;16.210;2023-05-10T00:06:28;11.90;99.90
45685;DHT22;46836;48.388;16.210;2023-05-10T00:08:55;11.90;99.90
45685;DHT22;46836;48.388;16.210;2023-05-10T00:11:22;11.80;99.90
45685;DHT22;46836;48.388;16.210;2023-05-10T00:13:49;11.80;99.90
45685;DHT22;46836;48.388;16.210;2023-05-10T00:16:16;11.70;99.90
45685;DHT22;46836;48.388;16.210;2023-05-10T00:18:43;11.70;99.90
45685;DHT22;46836;48.388;16.210;2023-05-10T00:21:10;11.70;99.90
45685;DHT22;46836;48.388;16.210;2023-05-10T00:23:37;11.70;99.90
45685;DHT22;46836;48.388;16.210;2023-05-10T00:26:04;11.60;99.90
45685;DHT22;46836;48.388;16.210;2023-05-10T00:28:31;11.60;99.90
45685;DHT22;46836;48.388;16.210;2023-05-10T00:30:58;11.60;99.90
45685;DHT22;46836;48.388;16.210;2023-05-10T00:33:25;11.50;99.90
45685;DHT22;46836;48.388;16.210;2023-05-10T00:35:52;11.50;99.90
45685;DHT22;46836;48.388;16.210;2023-05-10T00:38:19;11.50;99.90
45685;DHT22;46836;48.388;16.210;2023-05-10T00:40:46;11.50;99.90
45685;DHT22;46836;48.388;16.210;2023-05-10T00:43:13;11.40;99.90
45685;DHT22;46836;48.388;16.210;2023-05-10T00:45:41;11.40;99.90
45685;DHT22;46836;48.388;16.210;2023-05-10T00:48:08;11.40;99.90
45685;DHT22;46836;48.388;16.210;2023-05-10T00:50:35;11.40;99.90
45685;DHT22;46836;48.388;16.210;2023-05-10T00:53:03;11.40;99.90
45685;DHT22;46836;48.388;16.210;2023-05-10T00:55:31;11.40;99.90
45685;DHT22;46836;48.388;16.210;2023-05-10T00:57:58;11.40;99.90
45685;DHT22;46836;48.388;16.210;2023-05-10T01:00:25;11.30;99.90
45685;DHT22;46836;48.388;16.210;2023-05-10T01:02:53;11.30;99.90
45685;DHT22;46836;48.388;16.210;2023-05-10T01:05:21;11.30;99.90
45685;DHT22;46836;48.388;16.210;2023-05-10T01:07:48;11.30;99.90
45685;DHT22;46836;48.388;16.210;2023-05-10T01:10:15;11.20;99.90
45685;DHT22;46836;48.388;16.210;2023-05-10T01:12:46;11.20;99.90
45685;DHT22;46836;48.388;16.210;2023-05-10T01:15:15;11.20;99.90
45685;DHT22;46836;48.388;16.210;2023-05-10T01:17:44;11.20;99.90
45685;DHT22;46836;48.388;16.210;2023-05-10T01:20:12;11.10;99.90
45685;DHT22;46836;48.388;16.210;2023-05-10T01:31:25;11.00;99.90
45685;DHT22;46836;48.388;16.210;2023-05-10T01:34:02;11.00;99.90
45685;DHT22;46836;48.388;16.210;2023-05-10T01:36:48;11.00;99.90
45685;DHT22;46836;48.388;16.210;2023-05-10T01:42:31;10.90;99.90
45685;DHT22;46836;48.388;16.210;2023-05-10T01:47:40;10.80;99.90
45685;DHT22;46836;48.388;16.210;2023-05-10T01:50:18;10.80;99.90
45685;DHT22;46836;48.388;16.210;2023-05-10T01:52:53;10.70;99.90
45685;DHT22;46836;48.388;16.210;2023-05-10T01:55:24;10.70;99.90
45685;DHT22;46836;48.388;16.210;2023-05-10T01:58:00;10.70;99.90
45685;DHT22;46836;48.388;16.210;2023-05-10T02:00:29;10.70;99.90
45685;DHT22;46836;48.388;16.210;2023-05-10T02:03:00;10.60;99.90
45685;DHT22;46836;48.388;16.210;2023-05-10T02:05:29;10.60;99.90
45685;DHT22;46836;48.388;16.210;2023-05-10T02:07:58;10.60;99.90
45685;DHT22;46836;48.388;16.210;2023-05-10T02:10:28;10.50;99.90
45685;DHT22;46836;48.388;16.210;2023-05-10T02:12:58;10.50;99.90
45685;DHT22;46836;48.388;16.210;2023-05-10T02:15:27;10.50;99.90
45685;DHT22;46836;48.388;16.210;2023-05-10T02:17:56;10.50;99.90
45685;DHT22;46836;48.388;16.210;2023-05-10T02:20:26;10.50;99.90
45685;DHT22;46836;48.388;16.210;2023-05-10T02:22:55;10.40;99.90
45685;DHT22;46836;48.388;16.210;2023-05-10T02:25:24;10.40;99.90
45685;DHT22;46836;48.388;16.210;2023-05-10T02:27:55;10.40;99.90
45685;DHT22;46836;48.388;16.210;2023-05-10T02:30:23;10.40;99.90
45685;DHT22;46836;48.388;16.210;2023-05-10T02:32:51;10.30;99.90
45685;DHT22;46836;48.388;16.210;2023-05-10T02:35:19;10.30;99.90
45685;DHT22;46836;48.388;16.210;2023-05-10T02:37:48;10.30;99.90
45685;DHT22;46836;48.388;16.210;2023-05-10T02:40:16;10.30;99.90
45685;DHT22;46836;48.388;16.210;2023-05-10T02:42:45;10.30;99.90
45685;DHT22;46836;48.388;16.210;2023-05-10T02:45:18;10.20;99.90
45685;DHT22;46836;48.388;16.210;2023-05-10T02:47:46;10.20;99.90
45685;DHT22;46836;48.388;16.210;2023-05-10T02:50:13;10.20;99.90
45685;DHT22;46836;48.388;16.210;2023-05-10T02:52:51;10.10;99.90
45685;DHT22;46836;48.388;16.210;2023-05-10T02:55:27;10.10;99.90
45685;DHT22;46836;48.388;16.210;2023-05-10T02:58:00;10.10;99.90
45685;DHT22;46836;48.388;16.210;2023-05-10T03:00:28;10.00;99.90
45685;DHT22;46836;48.388;16.210;2023-05-10T03:02:55;10.00;99.90
45685;DHT22;46836;48.388;16.210;2023-05-10T03:05:22;10.00;99.90
45685;DHT22;46836;48.388;16.210;2023-05-10T03:07:50;10.00;99.90
45685;DHT22;46836;48.388;16.210;2023-05-10T03:10:18;9.90;99.90
45685;DHT22;46836;48.388;16.210;2023-05-10T03:18:50;9.90;99.90
45685;DHT22;46836;48.388;16.210;2023-05-10T03:21:22;9.80;99.90
45685;DHT22;46836;48.388;16.210;2023-05-10T03:23:59;9.80;99.90
45685;DHT22;46836;48.388;16.210;2023-05-10T03:26:30;9.80;99.90
45685;DHT22;46836;48.388;16.210;2023-05-10T03:28:58;9.80;99.90
45685;DHT22;46836;48.388;16.210;2023-05-10T03:31:26;9.80;99.90
45685;DHT22;46836;48.388;16.210;2023-05-10T03:33:53;9.80;99.90
45685;DHT22;46836;48.388;16.210;2023-05-10T03:36:20;9.70;99.90
45685;DHT22;46836;48.388;16.210;2023-05-10T03:38:47;9.70;99.90
45685;DHT22;46836;48.388;16.210;2023-05-10T03:41:14;9.70;99.90
45685;DHT22;46836;48.388;16.210;2023-05-10T03:43:41;9.70;99.90
45685;DHT22;46836;48.388;16.210;2023-05-10T03:46:08;9.70;99.90
45685;DHT22;46836;48.388;16.210;2023-05-10T03:48:36;9.70;99.90
45685;DHT22;46836;48.388;16.210;2023-05-10T03:51:03;9.70;99.90
45685;DHT22;46836;48.388;16.210;2023-05-10T03:53:30;9.70;99.90
45685;DHT22;46836;48.388;16.210;2023-05-10T03:55:57;9.70;99.90
45685;DHT22;46836;48.388;16.210;2023-05-10T03:58:24;9.70;99.90
45685;DHT22;46836;48.388;16.210;2023-05-10T04:00:52;9.70;99.90
45685;DHT22;46836;48.388;16.210;2023-05-10T04:03:19;9.70;99.90
45685;DHT22;46836;48.388;16.210;2023-05-10T04:05:47;9.70;99.90
45685;DHT22;46836;48.388;16.210;2023-05-10T04:08:14;9.70;99.90
45685;DHT22;46836;48.388;16.210;2023-05-10T04:10:43;9.70;99.90
45685;DHT22;46836;48.388;16.210;2023-05-10T04:13:10;9.80;99.90
45685;DHT22;46836;48.388;16.210;2023-05-10T04:15:38;9.80;99.90
45685;DHT22;46836;48.388;16.210;2023-05-10T04:18:04;9.80;99.90
45685;DHT22;46836;48.388;16.210;2023-05-10T04:20:34;9.80;99.90
45685;DHT22;46836;48.388;16.210;2023-05-10T04:23:01;9.90;99.90
45685;DHT22;46836;48.388;16.210;2023-05-10T04:25:28;9.90;99.90
45685;DHT22;46836;48.388;16.210;2023-05-10T04:27:55;9.90;99.90
45685;DHT22;46836;48.388;16.210;2023-05-10T04:30:22;9.90;99.90
45685;DHT22;46836;48.388;16.210;2023-05-10T04:32:49;9.90;99.90
45685;DHT22;46836;48.388;16.210;2023-05-10T04:35:16;10.00;99.90
45685;DHT22;46836;48.388;16.210;2023-05-10T04:37:43;10.00;99.90
45685;DHT22;46836;48.388;16.210;2023-05-10T04:40:11;10.10;99.90
45685;DHT22;46836;48.388;16.210;2023-05-10T04:42:40;10.10;99.90
45685;DHT22;46836;48.388;16.210;2023-05-10T04:45:08;10.20;99.90
45685;DHT22;46836;48.388;16.210;2023-05-10T04:47:36;10.20;99.90
45685;DHT22;46836;48.388;16.210;2023-05-10T04:50:04;10.30;99.90
45685;DHT22;46836;48.388;16.210;2023-05-10T04:52:32;10.30;99.90
45685;DHT22;46836;48.388;16.210;2023-05-10T04:54:59;10.40;99.90
45685;DHT22;46836;48.388;16.210;2023-05-10T04:57:26;10.50;99.90
45685;DHT22;46836;48.388;16.210;2023-05-10T04:59:53;10.60;99.90
45685;DHT22;46836;48.388;16.210;2023-05-10T05:02:20;10.70;99.90
45685;DHT22;46836;48.388;16.210;2023-05-10T05:04:47;13.70;99.90
45685;DHT22;46836;48.388;16.210;2023-05-10T05:07:14;17.40;99.90
45685;DHT22;46836;48.388;16.210;2023-05-10T05:09:41;19.80;99.90
45685;DHT22;46836;48.388;16.210;2023-05-10T05:12:08;21.40;99.90
45685;DHT22;46836;48.388;16.210;2023-05-10T05:14:40;22.60;99.90
45685;DHT22;46836;48.388;16.210;2023-05-10T05:17:08;22.00;99.90
45685;DHT22;46836;48.388;16.210;2023-05-10T05:19:35;18.60;99.90
45685;DHT22;46836;48.388;16.210;2023-05-10T05:22:02;16.60;99.90
45685;DHT22;46836;48.388;16.210;2023-05-10T05:24:35;15.20;99.90
45685;DHT22;46836;48.388;16.210;2023-05-10T05:27:02;14.30;99.90
45685;DHT22;46836;48.388;16.210;2023-05-10T05:29:29;13.80;99.90
45685;DHT22;46836;48.388;16.210;2023-05-10T05:31:56;13.40;99.90
45685;DHT22;46836;48.388;16.210;2023-05-10T05:34:23;13.10;99.90
45685;DHT22;46836;48.388;16.210;2023-05-10T05:36:51;13.00;99.90
45685;DHT22;46836;48.388;16.210;2023-05-10T05:39:18;12.90;99.90
45685;DHT22;46836;48.388;16.210;2023-05-10T05:41:45;12.90;99.90
45685;DHT22;46836;48.388;16.210;2023-05-10T05:44:13;12.90;99.90
45685;DHT22;46836;48.388;16.210;2023-05-10T05:46:40;13.00;99.90
45685;DHT22;46836;48.388;16.210;2023-05-10T05:49:07;13.00;99.90
45685;DHT22;46836;48.388;16.210;2023-05-10T05:51:34;13.10;99.90
45685;DHT22;46836;48.388;16.210;2023-05-10T05:54:02;13.20;99.90
45685;DHT22;46836;48.388;16.210;2023-05-10T05:56:31;13.30;99.90
45685;DHT22;46836;48.388;16.210;2023-05-10T05:58:58;13.40;99.90
45685;DHT22;46836;48.388;16.210;2023-05-10T06:01:25;13.50;99.90
45685;DHT22;46836;48.388;16.210;2023-05-10T06:03:52;13.60;99.90
45685;DHT22;46836;48.388;16.210;2023-05-10T06:06:19;13.70;99.90
45685;DHT22;46836;48.388;16.210;2023-05-10T06:08:46;13.90;99.90
45685;DHT22;46836;48.388;16.210;2023-05-10T06:11:13;13.90;99.90
45685;DHT22;46836;48.388;16.210;2023-05-10T06:13:40;14.10;99.90
45685;DHT22;46836;48.388;16.210;2023-05-10T06:16:09;14.20;99.90
45685;DHT22;46836;48.388;16.210;2023-05-10T06:18:36;14.30;99.90
45685;DHT22;46836;48.388;16.210;2023-05-10T06:21:03;14.30;99.90
45685;DHT22;46836;48.388;16.210;2023-05-10T06:23:30;14.40;99.90
45685;DHT22;46836;48.388;16.210;2023-05-10T06:25:57;14.50;99.90
45685;DHT22;46836;48.388;16.210;2023-05-10T06:28:24;14.70;99.90
45685;DHT22;46836;48.388;16.210;2023-05-10T06:30:51;14.70;99.90
45685;DHT22;46836;48.388;16.210;2023-05-10T06:33:18;14.80;99.90
45685;DHT22;46836;48.388;16.210;2023-05-10T06:35:45;14.90;99.90
45685;DHT22;46836;48.388;16.210;2023-05-10T06:38:12;15.10;99.90
45685;DHT22;46836;48.388;16.210;2023-05-10T06:40:42;15.20;99.90
45685;DHT22;46836;48.388;16.210;2023-05-10T06:43:09;15.30;99.90
45685;DHT22;46836;48.388;16.210;2023-05-10T06:45:37;15.40;99.90
45685;DHT22;46836;48.388;16.210;2023-05-10T06:48:04;15.40;99.90
45685;DHT22;46836;48.388;16.210;2023-05-10T06:50:31;15.50;99.90
45685;DHT22;46836;48.388;16.210;2023-05-10T06:52:58;15.60;99.90
45685;DHT22;46836;48.388;16.210;2023-05-10T06:55:25;15.70;99.90
45685;DHT22;46836;48.388;16.210;2023-05-10T06:57:53;15.70;99.90
45685;DHT22;46836;48.388;16.210;2023-05-10T07:00:20;15.80;99.90
45685;DHT22;46836;48.388;16.210;2023-05-10T07:02:47;15.90;99.90
45685;DHT22;46836;48.388;16.210;2023-05-10T07:05:14;16.00;99.90
45685;DHT22;46836;48.388;16.210;2023-05-10T07:07:42;16.10;99.90
45685;DHT22;46836;48.388;16.210;2023-05-10T07:10:09;16.20;99.90
45685;DHT22;46836;48.388;16.210;2023-05-10T07:12:36;16.20;99.90
45685;DHT22;46836;48.388;16.210;2023-05-10T07:15:04;16.30;99.90
45685;DHT22;46836;48.388;16.210;2023-05-10T07:17:31;16.30;99.90
45685;DHT22;46836;48.388;16.210;2023-05-10T07:20:00;16.40;99.90
45685;DHT22;46836;48.388;16.210;2023-05-10T07:22:28;16.50;99.90
45685;DHT22;46836;48.388;16.210;2023-05-10T07:24:55;16.50;99.90
45685;DHT22;46836;48.388;16.210;2023-05-10T07:27:22;16.60;99.90
45685;DHT22;46836;48.388;16.210;2023-05-10T07:29:49;16.70;99.90
45685;DHT22;46836;48.388;16.210;2023-05-10T07:32:16;16.80;99.90
45685;DHT22;46836;48.388;16.210;2023-05-10T07:34:43;16.90;99.90
45685;DHT22;46836;48.388;16.210;2023-05-10T07:37:10;17.00;99.90
45685;DHT22;46836;48.388;16.210;2023-05-10T07:39:37;17.10;99.90
45685;DHT22;46836;48.388;16.210;2023-05-10T07:42:04;17.20;99.90
45685;DHT22;46836;48.388;16.210;2023-05-10T07:44:32;17.30;99.90
45685;DHT22;46836;48.388;16.210;2023-05-10T07:46:59;17.40;99.90
45685;DHT22;46836;48.388;16.210;2023-05-10T07:49:26;17.50;99.90
45685;DHT22;46836;48.388;16.210;2023-05-10T07:51:53;17.70;99.90
45685;DHT22;46836;48.388;16.210;2023-05-10T07:54:20;17.80;99.90
45685;DHT22;46836;48.388;16.210;2023-05-10T07:56:48;17.90;99.90
45685;DHT22;46836;48.388;16.210;2023-05-10T07:59:16;18.00;99.90
45685;DHT22;46836;48.388;16.210;2023-05-10T08:01:43;18.20;99.90
45685;DHT22;46836;48.388;16.210;2023-05-10T08:04:10;18.30;99.90
45685;DHT22;46836;48.388;16.210;2023-05-10T08:06:39;18.40;99.90
45685;DHT22;46836;48.388;16.210;2023-05-10T08:09:07;18.60;99.90
45685;DHT22;46836;48.388;16.210;2023-05-10T08:11:35;18.60;99.90
45685;DHT22;46836;48.388;16.210;2023-05-10T08:14:02;18.70;99.90
45685;DHT22;46836;48.388;16.210;2023-05-10T08:16:29;18.80;99.90
45685;DHT22;46836;48.388;16.210;2023-05-10T08:18:56;18.80;99.90
45685;DHT22;46836;48.388;16.210;2023-05-10T08:21:23;18.90;99.90
45685;DHT22;46836;48.388;16.210;2023-05-10T08:23:50;18.80;99.90
45685;DHT22;46836;48.388;16.210;2023-05-10T08:26:18;18.80;99.90
45685;DHT22;46836;48.388;16.210;2023-05-10T08:28:45;18.70;99.90
45685;DHT22;46836;48.388;16.210;2023-05-10T08:31:12;18.70;99.90
45685;DHT22;46836;48.388;16.210;2023-05-10T08:33:39;18.80;99.90
45685;DHT22;46836;48.388;16.210;2023-05-10T08:36:09;18.80;99.90
45685;DHT22;46836;48.388;16.210;2023-05-10T08:38:37;18.80;99.90
45685;DHT22;46836;48.388;16.210;2023-05-10T08:41:05;18.60;99.90
45685;DHT22;46836;48.388;16.210;2023-05-10T08:43:33;18.70;99.90
45685;DHT22;46836;48.388;16.210;2023-05-10T08:46:05;18.80;99.90
45685;DHT22;46836;48.388;16.210;2023-05-10T08:48:34;18.90;99.90
45685;DHT22;46836;48.388;16.210;2023-05-10T08:51:03;18.90;99.90
45685;DHT22;46836;48.388;16.210;2023-05-10T08:53:31;18.90;99.90
45685;DHT22;46836;48.388;16.210;2023-05-10T08:56:01;18.80;99.90
45685;DHT22;46836;48.388;16.210;2023-05-10T08:58:29;18.80;99.90
45685;DHT22;46836;48.388;16.210;2023-05-10T09:00:57;18.80;99.90
45685;DHT22;46836;48.388;16.210;2023-05-10T09:03:24;18.80;99.90
45685;DHT22;46836;48.388;16.210;2023-05-10T09:05:52;19.00;99.90
45685;DHT22;46836;48.388;16.210;2023-05-10T09:08:20;19.10;99.90
45685;DHT22;46836;48.388;16.210;2023-05-10T09:10:48;19.20;99.90
45685;DHT22;46836;48.388;16.210;2023-05-10T09:13:15;19.30;99.90
45685;DHT22;46836;48.388;16.210;2023-05-10T09:15:44;19.30;99.90
45685;DHT22;46836;48.388;16.210;2023-05-10T09:18:13;19.50;99.90
45685;DHT22;46836;48.388;16.210;2023-05-10T09:20:41;19.50;99.90
45685;DHT22;46836;48.388;16.210;2023-05-10T09:23:08;19.70;99.90
45685;DHT22;46836;48.388;16.210;2023-05-10T09:25:35;19.80;99.90
45685;DHT22;46836;48.388;16.210;2023-05-10T09:28:09;19.80;99.90
45685;DHT22;46836;48.388;16.210;2023-05-10T09:30:36;19.90;99.90
45685;DHT22;46836;48.388;16.210;2023-05-10T09:33:03;19.80;99.90
45685;DHT22;46836;48.388;16.210;2023-05-10T09:35:32;19.90;99.90
45685;DHT22;46836;48.388;16.210;2023-05-10T09:38:03;20.00;99.90
45685;DHT22;46836;48.388;16.210;2023-05-10T09:40:31;20.10;99.90
45685;DHT22;46836;48.388;16.210;2023-05-10T09:43:01;20.20;99.90
45685;DHT22;46836;48.388;16.210;2023-05-10T09:45:30;20.30;99.90
45685;DHT22;46836;48.388;16.210;2023-05-10T09:48:00;20.50;99.90
45685;DHT22;46836;48.388;16.210;2023-05-10T09:50:29;20.50;99.90
45685;DHT22;46836;48.388;16.210;2023-05-10T09:52:59;20.60;99.90
45685;DHT22;46836;48.388;16.210;2023-05-10T09:58:05;21.10;99.90
45685;DHT22;46836;48.388;16.210;2023-05-10T10:00:39;21.20;99.90
45685;DHT22;46836;48.388;16.210;2023-05-10T10:03:12;21.20;99.90
45685;DHT22;46836;48.388;16.210;2023-05-10T10:05:42;21.30;99.90
45685;DHT22;46836;48.388;16.210;2023-05-10T10:08:10;21.20;99.60
45685;DHT22;46836;48.388;16.210;2023-05-10T10:10:39;21.00;99.90
45685;DHT22;46836;48.388;16.210;2023-05-10T10:13:12;20.80;99.90
45685;DHT22;46836;48.388;16.210;2023-05-10T10:15:40;21.00;99.90
45685;DHT22;46836;48.388;16.210;2023-05-10T10:18:07;20.90;99.90
45685;DHT22;46836;48.388;16.210;2023-05-10T10:20:39;20.90;99.90
45685;DHT22;46836;48.388;16.210;2023-05-10T10:23:06;20.90;99.90
45685;DHT22;46836;48.388;16.210;2023-05-10T10:25:35;21.00;99.90
45685;DHT22;46836;48.388;16.210;2023-05-10T10:28:16;21.20;99.90
45685;DHT22;46836;48.388;16.210;2023-05-10T10:30:51;21.40;99.40
45685;DHT22;46836;48.388;16.210;2023-05-10T10:36:17;21.60;98.40
45685;DHT22;46836;48.388;16.210;2023-05-10T10:41:36;21.90;98.10
45685;DHT22;46836;48.388;16.210;2023-05-10T10:44:28;22.20;96.80
45685;DHT22;46836;48.388;16.210;2023-05-10T10:52:35;22.30;98.10
45685;DHT22;46836;48.388;16.210;2023-05-10T10:55:14;22.20;96.80
45685;DHT22;46836;48.388;16.210;2023-05-10T10:57:50;22.10;96.30
45685;DHT22;46836;48.388;16.210;2023-05-10T11:05:48;22.00;95.50
45685;DHT22;46836;48.388;16.210;2023-05-10T11:15:56;21.40;96.40
45685;DHT22;46836;48.388;16.210;2023-05-10T11:18:26;21.60;98.20
45685;DHT22;46836;48.388;16.210;2023-05-10T11:20:56;21.70;97.30
45685;DHT22;46836;48.388;16.210;2023-05-10T11:23:30;21.80;96.80
45685;DHT22;46836;48.388;16.210;2023-05-10T11:25:58;21.80;96.40
45685;DHT22;46836;48.388;16.210;2023-05-10T11:28:26;22.10;97.90
45685;DHT22;46836;48.388;16.210;2023-05-10T11:30:54;22.20;96.80
45685;DHT22;46836;48.388;16.210;2023-05-10T11:33:21;22.30;96.90
45685;DHT22;46836;48.388;16.210;2023-05-10T11:35:48;22.20;96.20
45685;DHT22;46836;48.388;16.210;2023-05-10T11:38:15;22.40;96.80
45685;DHT22;46836;48.388;16.210;2023-05-10T11:40:43;22.40;96.20
45685;DHT22;46836;48.388;16.210;2023-05-10T11:43:10;22.40;96.50
45685;DHT22;46836;48.388;16.210;2023-05-10T11:45:39;22.50;96.70
45685;DHT22;46836;48.388;16.210;2023-05-10T11:48:07;22.90;96.80
45685;DHT22;46836;48.388;16.210;2023-05-10T11:50:34;22.90;93.90
45685;DHT22;46836;48.388;16.210;2023-05-10T11:53:01;23.00;94.10
45685;DHT22;46836;48.388;16.210;2023-05-10T11:55:28;23.20;96.20
45685;DHT22;46836;48.388;16.210;2023-05-10T11:58:00;23.30;94.00
45685;DHT22;46836;48.388;16.210;2023-05-10T12:00:28;23.30;93.90
45685;DHT22;46836;48.388;16.210;2023-05-10T12:02:56;23.00;94.40
45685;DHT22;46836;48.388;16.210;2023-05-10T12:05:24;22.90;95.10
45685;DHT22;46836;48.388;16.210;2023-05-10T12:07:52;22.90;95.50
45685;DHT22;46836;48.388;16.210;2023-05-10T12:10:25;23.00;95.60
45685;DHT22;46836;48.388;16.210;2023-05-10T12:12:53;23.00;93.90
45685;DHT22;46836;48.388;16.210;2023-05-10T12:15:24;23.00;94.60
45685;DHT22;46836;48.388;16.210;2023-05-10T12:17:51;22.90;94.40
45685;DHT22;46836;48.388;16.210;2023-05-10T12:20:20;22.80;94.70
45685;DHT22;46836;48.388;16.210;2023-05-10T12:22:55;22.60;94.20
45685;DHT22;46836;48.388;16.210;2023-05-10T12:25:30;22.60;93.60
45685;DHT22;46836;48.388;16.210;2023-05-10T12:27:58;22.60;94.50
45685;DHT22;46836;48.388;16.210;2023-05-10T12:30:30;22.60;94.60
45685;DHT22;46836;48.388;16.210;2023-05-10T12:35:31;22.30;92.50
45685;DHT22;46836;48.388;16.210;2023-05-10T12:37:59;22.30;92.80
45685;DHT22;46836;48.388;16.210;2023-05-10T12:40:26;22.40;94.30
45685;DHT22;46836;48.388;16.210;2023-05-10T12:42:53;22.40;93.80
45685;DHT22;46836;48.388;16.210;2023-05-10T12:45:20;22.40;93.90
45685;DHT22;46836;48.388;16.210;2023-05-10T12:47:47;22.30;94.00
45685;DHT22;46836;48.388;16.210;2023-05-10T12:50:14;22.30;93.20
45685;DHT22;46836;48.388;16.210;2023-05-10T12:52:41;22.30;93.00
45685;DHT22;46836;48.388;16.210;2023-05-10T12:55:08;22.30;93.30
45685;DHT22;46836;48.388;16.210;2023-05-10T12:57:35;22.30;93.20
45685;DHT22;46836;48.388;16.210;2023-05-10T13:00:03;22.20;93.40
45685;DHT22;46836;48.388;16.210;2023-05-10T13:02:31;22.30;93.40
45685;DHT22;46836;48.388;16.210;2023-05-10T13:04:58;22.30;93.40
45685;DHT22;46836;48.388;16.210;2023-05-10T13:07:25;22.20;92.90
45685;DHT22;46836;48.388;16.210;2023-05-10T13:09:52;22.20;93.50
45685;DHT22;46836;48.388;16.210;2023-05-10T13:12:19;22.10;92.90
45685;DHT22;46836;48.388;16.210;2023-05-10T13:14:46;21.90;92.60
45685;DHT22;46836;48.388;16.210;2023-05-10T13:17:13;21.70;92.40
45685;DHT22;46836;48.388;16.210;2023-05-10T13:19:40;21.70;92.80
45685;DHT22;46836;48.388;16.210;2023-05-10T13:22:07;21.60;93.10
45685;DHT22;46836;48.388;16.210;2023-05-10T13:24:34;21.60;93.40
45685;DHT22;46836;48.388;16.210;2023-05-10T13:27:01;21.70;93.50
45685;DHT22;46836;48.388;16.210;2023-05-10T13:29:29;21.60;93.30
45685;DHT22;46836;48.388;16.210;2023-05-10T13:31:56;21.50;92.50
45685;DHT22;46836;48.388;16.210;2023-05-10T13:34:23;21.40;93.40
45685;DHT22;46836;48.388;16.210;2023-05-10T13:36:50;21.40;93.00
45685;DHT22;46836;48.388;16.210;2023-05-10T13:39:18;21.50;93.40
45685;DHT22;46836;48.388;16.210;2023-05-10T13:41:45;21.40;93.40
45685;DHT22;46836;48.388;16.210;2023-05-10T13:44:14;21.40;93.30
45685;DHT22;46836;48.388;16.210;2023-05-10T13:46:42;21.50;93.70
45685;DHT22;46836;48.388;16.210;2023-05-10T13:49:09;21.50;94.40
45685;DHT22;46836;48.388;16.210;2023-05-10T13:51:37;21.50;94.00
45685;DHT22;46836;48.388;16.210;2023-05-10T13:54:04;21.50;93.90
45685;DHT22;46836;48.388;16.210;2023-05-10T13:56:31;21.50;93.80
45685;DHT22;46836;48.388;16.210;2023-05-10T13:58:58;21.50;94.20
45685;DHT22;46836;48.388;16.210;2023-05-10T14:01:26;21.50;94.00
45685;DHT22;46836;48.388;16.210;2023-05-10T14:03:53;21.50;94.00
45685;DHT22;46836;48.388;16.210;2023-05-10T14:06:20;21.50;94.10
45685;DHT22;46836;48.388;16.210;2023-05-10T14:08:48;21.50;94.00
45685;DHT22;46836;48.388;16.210;2023-05-10T14:11:15;21.50;94.40
45685;DHT22;46836;48.388;16.210;2023-05-10T14:13:42;21.70;94.50
45685;DHT22;46836;48.388;16.210;2023-05-10T14:16:09;21.60;93.90
45685;DHT22;46836;48.388;16.210;2023-05-10T14:18:36;21.60;94.10
45685;DHT22;46836;48.388;16.210;2023-05-10T14:21:03;21.60;94.30
45685;DHT22;46836;48.388;16.210;2023-05-10T14:23:30;21.70;94.10
45685;DHT22;46836;48.388;16.210;2023-05-10T14:25:57;21.70;94.00
45685;DHT22;46836;48.388;16.210;2023-05-10T14:28:24;21.60;93.80
45685;DHT22;46836;48.388;16.210;2023-05-10T14:30:51;21.60;93.50
45685;DHT22;46836;48.388;16.210;2023-05-10T14:33:18;21.50;93.40
45685;DHT22;46836;48.388;16.210;2023-05-10T14:35:46;21.50;92.90
45685;DHT22;46836;48.388;16.210;2023-05-10T14:38:14;21.40;92.70
45685;DHT22;46836;48.388;16.210;2023-05-10T14:40:41;21.40;92.90
45685;DHT22;46836;48.388;16.210;2023-05-10T14:43:09;21.30;92.60
45685;DHT22;46836;48.388;16.210;2023-05-10T14:45:36;21.30;92.50
45685;DHT22;46836;48.388;16.210;2023-05-10T14:48:03;21.30;92.90
45685;DHT22;46836;48.388;16.210;2023-05-10T14:50:32;21.30;92.60
45685;DHT22;46836;48.388;16.210;2023-05-10T14:53:03;21.20;92.30
45685;DHT22;46836;48.388;16.210;2023-05-10T14:55:30;21.20;92.20
45685;DHT22;46836;48.388;16.210;2023-05-10T14:57:57;21.20;92.10
45685;DHT22;46836;48.388;16.210;2023-05-10T15:00:26;21.30;91.40
45685;DHT22;46836;48.388;16.210;2023-05-10T15:02:53;21.20;91.00
45685;DHT22;46836;48.388;16.210;2023-05-10T15:05:21;21.10;91.40
45685;DHT22;46836;48.388;16.210;2023-05-10T15:07:49;21.00;91.30
45685;DHT22;46836;48.388;16.210;2023-05-10T15:10:17;20.90;92.10
45685;DHT22;46836;48.388;16.210;2023-05-10T15:12:45;20.80;90.40
45685;DHT22;46836;48.388;16.210;2023-05-10T15:15:12;20.70;91.40
45685;DHT22;46836;48.388;16.210;2023-05-10T15:17:38;20.70;91.60
45685;DHT22;46836;48.388;16.210;2023-05-10T15:20:06;20.60;91.80
45685;DHT22;46836;48.388;16.210;2023-05-10T15:22:33;20.60;91.50
45685;DHT22;46836;48.388;16.210;2023-05-10T15:25:00;20.60;91.20
45685;DHT22;46836;48.388;16.210;2023-05-10T15:27:28;20.60;91.50
45685;DHT22;46836;48.388;16.210;2023-05-10T15:29:55;20.70;91.30
45685;DHT22;46836;48.388;16.210;2023-05-10T15:32:22;20.90;91.60
45685;DHT22;46836;48.388;16.210;2023-05-10T15:34:49;21.00;91.60
45685;DHT22;46836;48.388;16.210;2023-05-10T15:37:16;21.00;91.30
45685;DHT22;46836;48.388;16.210;2023-05-10T15:39:44;21.00;91.50
45685;DHT22;46836;48.388;16.210;2023-05-10T15:42:11;21.00;91.20
45685;DHT22;46836;48.388;16.210;2023-05-10T15:44:38;21.00;91.60
45685;DHT22;46836;48.388;16.210;2023-05-10T15:47:05;20.90;91.30
45685;DHT22;46836;48.388;16.210;2023-05-10T15:49:32;21.10;92.00
45685;DHT22;46836;48.388;16.210;2023-05-10T15:51:59;21.10;91.90
45685;DHT22;46836;48.388;16.210;2023-05-10T15:54:26;21.20;91.30
45685;DHT22;46836;48.388;16.210;2023-05-10T15:56:54;21.10;91.70
45685;DHT22;46836;48.388;16.210;2023-05-10T15:59:21;21.20;91.70
45685;DHT22;46836;48.388;16.210;2023-05-10T16:01:48;21.00;91.40
45685;DHT22;46836;48.388;16.210;2023-05-10T16:04:15;21.00;91.90
45685;DHT22;46836;48.388;16.210;2023-05-10T16:06:42;21.00;91.90
45685;DHT22;46836;48.388;16.210;2023-05-10T16:09:09;21.00;91.80
45685;DHT22;46836;48.388;16.210;2023-05-10T16:11:36;20.90;91.60
45685;DHT22;46836;48.388;16.210;2023-05-10T16:14:04;20.90;91.80